CCA993 ZBAA-CYYZ
Flight info
| Callsign | CCA993 |
|---|---|
| Flight time | N/A |
| Altitude | 31100 |
| Route | DOTRA2G DOTRA B334 TGO G212 ARGUK/K0907F311 G212 HAB/K0902F330 N222 NA L160 PEMID/K0911F350 L160 LISKI/N0493F350 NCA31 VOLOB DCT 69N128W 67N117W DCT 65N08 DCT 62N00 DCT YYQ/N0495F370 DCT 5589N DCT 51N085W 48N083W DCT ALMOP |
| Aircraft | B77W/H-SDE1E2E3FGHIJ2J3J4J5M1RWXY/LB1D1 |
Departure
| Time | 2026-05-04 21:24 |
|---|---|
| Airport | Beijing Capital International Airport (ZBAA) |
Arrival
| Time | N/A |
|---|---|
| Airport | Toronto Pearson International Airport (CYYZ) |
| Time | Latitude | Longitude | Altitude | Speed | Heading |
|---|---|---|---|---|---|
| 2026-05-04 21:04 | 40.07296 | 116.60796 | 126 ft | 0 kts | 263° |
| 2026-05-04 21:12 | 40.07297 | 116.60802 | 127 ft | 3 kts | 263° |
| 2026-05-04 21:12 | 40.07300 | 116.60837 | 125 ft | 4 kts | 263° |
| 2026-05-04 21:13 | 40.07303 | 116.60867 | 125 ft | 4 kts | 255° |
| 2026-05-04 21:13 | 40.07314 | 116.60897 | 124 ft | 4 kts | 221° |
| 2026-05-04 21:13 | 40.07336 | 116.60911 | 123 ft | 4 kts | 184° |
| 2026-05-04 21:13 | 40.07363 | 116.60910 | 124 ft | 4 kts | 172° |
| 2026-05-04 21:14 | 40.07370 | 116.60908 | 123 ft | 0 kts | 173° |
| 2026-05-04 21:16 | 40.07369 | 116.60908 | 123 ft | 1 kts | 173° |
| 2026-05-04 21:16 | 40.07359 | 116.60910 | 123 ft | 4 kts | 173° |
| 2026-05-04 21:16 | 40.07304 | 116.60918 | 124 ft | 12 kts | 173° |
| 2026-05-04 21:16 | 40.07221 | 116.60931 | 126 ft | 12 kts | 173° |
| 2026-05-04 21:17 | 40.07139 | 116.60944 | 125 ft | 12 kts | 173° |
| 2026-05-04 21:17 | 40.07057 | 116.60957 | 126 ft | 12 kts | 173° |
| 2026-05-04 21:17 | 40.06976 | 116.60971 | 124 ft | 12 kts | 167° |
| 2026-05-04 21:17 | 40.06945 | 116.61060 | 125 ft | 12 kts | 85° |
| 2026-05-04 21:18 | 40.06954 | 116.61168 | 128 ft | 12 kts | 83° |
| 2026-05-04 21:18 | 40.06964 | 116.61277 | 128 ft | 12 kts | 83° |
| 2026-05-04 21:18 | 40.07008 | 116.61355 | 124 ft | 12 kts | 7° |
| 2026-05-04 21:18 | 40.07092 | 116.61343 | 125 ft | 12 kts | 353° |
| 2026-05-04 21:19 | 40.07188 | 116.61329 | 126 ft | 17 kts | 354° |
| 2026-05-04 21:19 | 40.07323 | 116.61308 | 125 ft | 22 kts | 353° |
| 2026-05-04 21:19 | 40.07481 | 116.61283 | 125 ft | 23 kts | 353° |
| 2026-05-04 21:19 | 40.07639 | 116.61258 | 123 ft | 23 kts | 353° |
| 2026-05-04 21:20 | 40.07797 | 116.61234 | 128 ft | 23 kts | 353° |
| 2026-05-04 21:20 | 40.07954 | 116.61209 | 126 ft | 23 kts | 353° |
| 2026-05-04 21:20 | 40.08112 | 116.61185 | 124 ft | 23 kts | 353° |
| 2026-05-04 21:20 | 40.08270 | 116.61159 | 126 ft | 23 kts | 353° |
| 2026-05-04 21:21 | 40.08383 | 116.61141 | 126 ft | 23 kts | 353° |
| 2026-05-04 21:21 | 40.08495 | 116.61124 | 125 ft | 23 kts | 353° |
| 2026-05-04 21:21 | 40.08653 | 116.61099 | 127 ft | 23 kts | 353° |
| 2026-05-04 21:21 | 40.08811 | 116.61075 | 125 ft | 23 kts | 353° |
| 2026-05-04 21:22 | 40.08968 | 116.61051 | 125 ft | 23 kts | 353° |
| 2026-05-04 21:22 | 40.09117 | 116.61027 | 127 ft | 17 kts | 353° |
| 2026-05-04 21:22 | 40.09213 | 116.61011 | 126 ft | 10 kts | 353° |
| 2026-05-04 21:22 | 40.09278 | 116.61027 | 127 ft | 10 kts | 51° |
| 2026-05-04 21:23 | 40.09290 | 116.61117 | 125 ft | 10 kts | 89° |
| 2026-05-04 21:23 | 40.09261 | 116.61202 | 128 ft | 11 kts | 128° |
| 2026-05-04 21:23 | 40.09196 | 116.61247 | 124 ft | 11 kts | 167° |
| 2026-05-04 21:23 | 40.09103 | 116.61266 | 126 ft | 28 kts | 172° |
| 2026-05-04 21:24 | 40.08662 | 116.61335 | 126 ft | 101 kts | 173° |
| 2026-05-04 21:24 | 40.07738 | 116.61480 | 127 ft | 165 kts | 173° |
| 2026-05-04 21:24 | 40.06436 | 116.61754 | 154 ft | 209 kts | 167° |
| 2026-05-04 21:24 | 40.05047 | 116.62096 | 833 ft | 196 kts | 170° |
| 2026-05-04 21:25 | 40.03689 | 116.62414 | 1427 ft | 203 kts | 170° |
| 2026-05-04 21:25 | 40.02313 | 116.62951 | 1812 ft | 214 kts | 149° |
| 2026-05-04 21:25 | 40.01293 | 116.64449 | 1942 ft | 231 kts | 123° |
| 2026-05-04 21:25 | 40.00346 | 116.66206 | 2233 ft | 242 kts | 132° |
| 2026-05-04 21:26 | 39.99160 | 116.67824 | 2649 ft | 251 kts | 138° |
| 2026-05-04 21:26 | 39.98103 | 116.69690 | 2917 ft | 266 kts | 109° |
| 2026-05-04 21:26 | 39.98013 | 116.72124 | 3339 ft | 277 kts | 79° |
| 2026-05-04 21:26 | 39.98412 | 116.74626 | 3704 ft | 287 kts | 82° |
| 2026-05-04 21:27 | 39.98739 | 116.77226 | 4238 ft | 293 kts | 83° |
| 2026-05-04 21:27 | 39.99045 | 116.79878 | 4764 ft | 297 kts | 83° |
| 2026-05-04 21:27 | 39.99349 | 116.82567 | 4959 ft | 303 kts | 83° |
| 2026-05-04 21:27 | 39.99655 | 116.85292 | 4938 ft | 303 kts | 83° |
| 2026-05-04 21:28 | 39.99957 | 116.88000 | 4920 ft | 301 kts | 83° |
| 2026-05-04 21:28 | 40.00256 | 116.90701 | 4937 ft | 301 kts | 83° |
| 2026-05-04 21:28 | 40.00555 | 116.93420 | 4972 ft | 304 kts | 84° |
| 2026-05-04 21:28 | 40.00856 | 116.96148 | 5519 ft | 305 kts | 83° |
| 2026-05-04 21:29 | 40.01156 | 116.98890 | 6148 ft | 306 kts | 83° |
| 2026-05-04 21:29 | 40.01458 | 117.01644 | 6758 ft | 307 kts | 83° |
| 2026-05-04 21:29 | 40.01950 | 117.04344 | 7264 ft | 308 kts | 63° |
| 2026-05-04 21:29 | 40.03267 | 117.06516 | 7727 ft | 306 kts | 33° |
| 2026-05-04 21:30 | 40.05155 | 117.07691 | 8301 ft | 300 kts | 8° |
| 2026-05-04 21:30 | 40.07200 | 117.07895 | 8860 ft | 292 kts | 350° |
| 2026-05-04 21:30 | 40.09202 | 117.07560 | 9328 ft | 296 kts | 348° |
| 2026-05-04 21:30 | 40.11245 | 117.07163 | 9885 ft | 298 kts | 348° |
| 2026-05-04 21:31 | 40.15461 | 117.06326 | 10509 ft | 323 kts | 348° |
| 2026-05-04 21:31 | 40.17750 | 117.05879 | 10676 ft | 342 kts | 348° |
| 2026-05-04 21:31 | 40.20175 | 117.05415 | 10832 ft | 362 kts | 349° |